createdAt,value
2017-07-14T00:00:02.529Z,9.4
2017-07-14T00:01:09.714Z,9.3
2017-07-14T00:02:15.680Z,9.3
2017-07-14T00:03:22.130Z,9.3
2017-07-14T00:04:29.837Z,9.4
2017-07-14T00:05:38.511Z,9.4
2017-07-14T00:06:44.018Z,9.5
2017-07-14T00:07:49.629Z,9.5
2017-07-14T00:08:56.529Z,9.4
2017-07-14T00:10:02.441Z,9.3
2017-07-14T00:11:08.023Z,9.3
2017-07-14T00:12:13.260Z,9.2
2017-07-14T00:13:21.219Z,9.1
2017-07-14T00:14:25.867Z,9.1
2017-07-14T00:15:31.526Z,9.1
2017-07-14T00:16:37.166Z,9.1
2017-07-14T00:17:44.049Z,9.0
2017-07-14T00:18:47.902Z,9.0
2017-07-14T00:19:53.281Z,9.0
2017-07-14T00:20:59.315Z,9.1
2017-07-14T00:22:05.542Z,9.1
2017-07-14T00:23:09.711Z,9.1
2017-07-14T00:24:14.656Z,9.1
2017-07-14T00:25:21.234Z,9.1
2017-07-14T00:26:28.047Z,9.0
2017-07-14T00:27:32.043Z,9.0
2017-07-14T00:28:39.804Z,8.9
2017-07-14T00:29:44.478Z,8.9
2017-07-14T00:30:51.282Z,8.9
2017-07-14T00:31:59.020Z,8.8
2017-07-14T00:33:04.317Z,8.8
2017-07-14T00:34:11.069Z,8.8
2017-07-14T00:35:17.283Z,8.9
2017-07-14T00:36:24.744Z,8.9
2017-07-14T00:37:31.811Z,9.0
2017-07-14T00:38:37.240Z,9.1
2017-07-14T00:39:41.601Z,9.2
2017-07-14T00:40:49.087Z,9.3
2017-07-14T00:41:55.088Z,9.3
2017-07-14T00:42:59.794Z,9.3
2017-07-14T00:44:05.077Z,9.3
2017-07-14T00:45:08.719Z,9.4
2017-07-14T00:46:15.715Z,9.4
2017-07-14T00:47:23.577Z,9.4
2017-07-14T00:48:27.653Z,9.4
2017-07-14T00:49:35.636Z,9.5
2017-07-14T00:50:41.081Z,9.5
2017-07-14T00:51:45.019Z,9.5
2017-07-14T00:52:50.539Z,9.5
2017-07-14T00:53:56.982Z,9.5
2017-07-14T00:55:02.324Z,9.5
2017-07-14T00:56:08.305Z,9.5
2017-07-14T00:57:12.593Z,9.6
2017-07-14T00:58:19.095Z,9.6
2017-07-14T00:59:25.706Z,9.5
2017-07-14T01:00:29.600Z,9.4
2017-07-14T01:01:33.716Z,9.3
2017-07-14T01:02:39.252Z,9.3
2017-07-14T01:03:45.257Z,9.3
2017-07-14T01:04:51.291Z,9.3
2017-07-14T01:05:56.690Z,9.3
2017-07-14T01:07:04.116Z,9.3
2017-07-14T01:08:12.728Z,9.3
2017-07-14T01:09:18.648Z,9.2
2017-07-14T01:10:24.433Z,9.1
2017-07-14T01:11:31.321Z,9.1
2017-07-14T01:12:37.547Z,9.1
2017-07-14T01:13:42.271Z,9.1
2017-07-14T01:14:52.623Z,9.1
2017-07-14T01:15:56.095Z,9.1
2017-07-14T01:17:04.301Z,9.0
2017-07-14T01:18:11.291Z,9.0
2017-07-14T01:19:17.025Z,8.9
2017-07-14T01:20:24.377Z,9.0
2017-07-14T01:21:29.393Z,9.1
2017-07-14T01:22:35.633Z,9.1
2017-07-14T01:23:39.593Z,9.2
2017-07-14T01:24:49.268Z,9.3
2017-07-14T01:25:56.639Z,9.3
2017-07-14T01:27:01.522Z,9.2
2017-07-14T01:28:05.764Z,9.2
2017-07-14T01:29:09.966Z,9.1
2017-07-14T01:30:15.660Z,9.2
2017-07-14T01:31:18.911Z,9.2
2017-07-14T01:32:27.150Z,9.3
2017-07-14T01:33:32.754Z,9.3
2017-07-14T01:34:38.707Z,9.2
2017-07-14T01:35:45.446Z,9.1
2017-07-14T01:36:50.659Z,9.0
2017-07-14T01:37:55.830Z,8.9
2017-07-14T01:39:01.906Z,8.8
2017-07-14T01:40:07.390Z,8.7
2017-07-14T01:41:15.172Z,8.6
2017-07-14T01:42:20.370Z,8.5
2017-07-14T01:43:26.171Z,8.5
2017-07-14T01:44:30.499Z,8.4
2017-07-14T01:45:36.276Z,8.4
2017-07-14T01:46:42.939Z,8.3
2017-07-14T01:47:48.967Z,8.3
2017-07-14T01:48:54.831Z,8.3
2017-07-14T01:49:59.323Z,8.4
2017-07-14T01:51:05.048Z,8.5
2017-07-14T01:52:11.520Z,8.6
2017-07-14T01:53:17.495Z,8.6
2017-07-14T01:54:21.760Z,8.6
2017-07-14T01:55:28.685Z,8.6
2017-07-14T01:56:34.907Z,8.6
2017-07-14T01:57:42.206Z,8.6
2017-07-14T01:58:47.319Z,8.6
2017-07-14T01:59:53.786Z,8.6
2017-07-14T02:00:59.497Z,8.6
2017-07-14T02:02:05.967Z,8.6
2017-07-14T02:03:10.105Z,8.6
2017-07-14T02:04:21.420Z,8.5
2017-07-14T02:05:28.205Z,8.5
2017-07-14T02:06:34.203Z,8.5
2017-07-14T02:07:41.999Z,8.4
2017-07-14T02:08:48.218Z,8.3
2017-07-14T02:09:54.738Z,8.3
2017-07-14T02:10:59.302Z,8.3
2017-07-14T02:12:05.973Z,8.4
2017-07-14T02:13:11.842Z,8.5
2017-07-14T02:14:18.433Z,8.5
2017-07-14T02:15:25.854Z,8.5
2017-07-14T02:16:33.531Z,8.4
2017-07-14T02:17:41.367Z,8.3
2017-07-14T02:18:46.397Z,8.2
2017-07-14T02:19:51.742Z,8.2
2017-07-14T02:20:58.798Z,8.1
2017-07-14T02:22:06.237Z,8.2
2017-07-14T02:23:11.381Z,8.3
2017-07-14T02:24:16.242Z,8.3
2017-07-14T02:25:22.754Z,8.3
2017-07-14T02:26:29.310Z,8.2
2017-07-14T02:27:34.743Z,8.0
2017-07-14T02:28:38.757Z,7.9
2017-07-14T02:29:46.309Z,7.7
2017-07-14T02:30:49.668Z,7.6
2017-07-14T02:31:55.386Z,7.6
2017-07-14T02:33:02.868Z,7.6
2017-07-14T02:34:07.836Z,7.6
2017-07-14T02:35:13.305Z,7.7
2017-07-14T02:36:17.343Z,7.9
2017-07-14T02:37:26.287Z,8.0
2017-07-14T02:38:30.539Z,8.2
2017-07-14T02:39:35.882Z,8.1
2017-07-14T02:40:40.823Z,8.1
2017-07-14T02:41:44.927Z,8.1
2017-07-14T02:42:52.861Z,8.1
2017-07-14T02:43:58.671Z,8.3
2017-07-14T02:45:03.969Z,8.4
2017-07-14T02:46:09.840Z,8.5
2017-07-14T02:47:14.796Z,8.5
2017-07-14T02:48:21.948Z,8.5
2017-07-14T02:49:29.895Z,8.4
2017-07-14T02:50:39.488Z,8.2
2017-07-14T02:51:44.535Z,8.3
2017-07-14T02:52:50.244Z,8.3
2017-07-14T02:53:54.968Z,8.2
2017-07-14T02:54:59.963Z,8.2
2017-07-14T02:56:07.482Z,8.2
2017-07-14T02:57:13.797Z,8.1
2017-07-14T02:58:19.248Z,8.2
2017-07-14T02:59:24.713Z,8.1
2017-07-14T03:00:30.461Z,8.1
2017-07-14T03:01:36.941Z,8.2
2017-07-14T03:02:44.281Z,8.2
2017-07-14T03:03:50.818Z,8.3
2017-07-14T03:04:54.510Z,8.2
2017-07-14T03:06:00.460Z,8.2
2017-07-14T03:07:07.930Z,8.2
2017-07-14T03:08:16.521Z,8.2
2017-07-14T03:09:21.890Z,8.3
2017-07-14T03:10:26.723Z,8.3
2017-07-14T03:11:32.637Z,8.3
2017-07-14T03:12:37.113Z,8.3
2017-07-14T03:13:46.358Z,8.3
2017-07-14T03:14:52.449Z,8.3
2017-07-14T03:15:59.497Z,8.4
2017-07-14T03:17:06.816Z,8.5
2017-07-14T03:18:10.910Z,8.5
2017-07-14T03:19:19.122Z,8.5
2017-07-14T03:20:26.462Z,8.5
2017-07-14T03:21:33.073Z,8.6
2017-07-14T03:22:41.328Z,8.6
2017-07-14T03:23:47.078Z,8.7
2017-07-14T03:24:55.841Z,8.7
2017-07-14T03:25:58.803Z,8.6
2017-07-14T03:27:03.434Z,8.6
2017-07-14T03:28:09.798Z,8.6
2017-07-14T03:29:18.836Z,8.7
2017-07-14T03:30:26.837Z,8.8
2017-07-14T03:31:32.210Z,8.9
2017-07-14T03:32:38.997Z,8.9
2017-07-14T03:33:46.435Z,8.9
2017-07-14T03:34:50.324Z,8.9
2017-07-14T03:35:57.523Z,8.9
2017-07-14T03:37:02.005Z,8.9
2017-07-14T03:38:08.141Z,8.9
2017-07-14T03:39:15.241Z,8.9
2017-07-14T03:40:21.765Z,9.0
2017-07-14T03:41:28.855Z,9.0
2017-07-14T03:42:35.367Z,9.0
2017-07-14T03:43:40.859Z,9.0
2017-07-14T03:44:47.015Z,9.0
2017-07-14T03:45:57.366Z,9.0
2017-07-14T03:47:05.997Z,9.1
2017-07-14T03:48:13.492Z,9.1
2017-07-14T03:49:21.709Z,9.1
2017-07-14T03:50:29.876Z,9.2
2017-07-14T03:51:40.893Z,9.3
2017-07-14T03:52:47.843Z,9.3
2017-07-14T03:53:53.583Z,9.2
2017-07-14T03:55:00.399Z,9.2
2017-07-14T03:56:07.164Z,9.2
2017-07-14T03:57:13.480Z,9.3
2017-07-14T03:58:22.882Z,9.3
2017-07-14T03:59:28.703Z,9.2
2017-07-14T04:00:37.907Z,9.2
2017-07-14T04:01:42.786Z,9.2
2017-07-14T04:02:52.390Z,9.3
2017-07-14T04:03:59.111Z,9.3
2017-07-14T04:05:07.910Z,9.3
2017-07-14T04:06:12.608Z,9.3
2017-07-14T04:07:17.718Z,9.3
2017-07-14T04:08:25.111Z,9.4
2017-07-14T04:09:32.899Z,9.4
2017-07-14T04:10:37.578Z,9.5
2017-07-14T04:11:44.403Z,9.5
2017-07-14T04:12:51.405Z,9.5
2017-07-14T04:13:56.010Z,9.5
2017-07-14T04:15:03.408Z,9.5
2017-07-14T04:16:10.764Z,9.5
2017-07-14T04:17:17.918Z,9.6
2017-07-14T04:18:25.959Z,9.6
2017-07-14T04:19:34.060Z,9.6
2017-07-14T04:20:41.081Z,9.6
2017-07-14T04:21:51.364Z,9.6
2017-07-14T04:22:57.426Z,9.5
2017-07-14T04:24:05.161Z,9.6
2017-07-14T04:25:11.463Z,9.5
2017-07-14T04:26:18.499Z,9.5
2017-07-14T04:27:26.477Z,9.5
2017-07-14T04:28:33.302Z,9.5
2017-07-14T04:29:40.682Z,9.5
2017-07-14T04:30:49.111Z,9.6
2017-07-14T04:31:54.877Z,9.6
2017-07-14T04:33:02.746Z,9.6
2017-07-14T04:34:09.649Z,9.7
2017-07-14T04:35:17.537Z,9.8
2017-07-14T04:36:25.443Z,9.9
2017-07-14T04:37:29.327Z,10.0
2017-07-14T04:38:35.446Z,10.1
2017-07-14T04:39:40.348Z,10.2
2017-07-14T04:40:46.890Z,10.2
2017-07-14T04:41:53.960Z,10.3
2017-07-14T04:43:02.486Z,10.4
2017-07-14T04:44:07.581Z,10.4
2017-07-14T04:45:15.134Z,10.5
2017-07-14T04:46:21.486Z,10.7
2017-07-14T04:47:28.598Z,10.8
2017-07-14T04:48:36.269Z,10.9
2017-07-14T04:49:42.489Z,11.0
2017-07-14T04:50:49.304Z,11.1
2017-07-14T04:51:58.969Z,11.1
2017-07-14T04:53:06.969Z,11.2
2017-07-14T04:54:13.102Z,11.2
2017-07-14T04:55:22.482Z,11.3
2017-07-14T04:56:28.189Z,11.4
2017-07-14T04:57:34.711Z,11.5
2017-07-14T04:58:42.138Z,11.6
2017-07-14T04:59:48.924Z,11.6
2017-07-14T05:00:55.276Z,11.7
2017-07-14T05:02:04.621Z,11.8
2017-07-14T05:03:13.117Z,11.8
2017-07-14T05:04:20.710Z,11.9
2017-07-14T05:05:26.990Z,11.9
2017-07-14T05:06:34.342Z,12.0
2017-07-14T05:07:44.517Z,12.1
2017-07-14T05:08:51.855Z,12.1
2017-07-14T05:09:58.995Z,12.2
2017-07-14T05:11:06.129Z,12.3
2017-07-14T05:12:15.502Z,12.4
2017-07-14T05:13:17.907Z,12.4
2017-07-14T05:14:27.061Z,12.4
2017-07-14T05:15:35.035Z,12.5
2017-07-14T05:16:39.012Z,12.5
2017-07-14T05:17:45.778Z,12.6
2017-07-14T05:18:53.821Z,12.7
2017-07-14T05:19:59.177Z,12.7
2017-07-14T05:21:03.866Z,12.9
2017-07-14T05:22:10.154Z,13.0
2017-07-14T05:23:17.720Z,13.2
2017-07-14T05:24:22.779Z,13.3
2017-07-14T05:25:27.755Z,13.3
2017-07-14T05:26:33.376Z,13.4
2017-07-14T05:27:38.868Z,13.5
2017-07-14T05:28:46.526Z,13.5
2017-07-14T05:29:51.531Z,13.5
2017-07-14T05:30:59.031Z,13.6
2017-07-14T05:32:04.172Z,13.6
2017-07-14T05:33:11.044Z,13.7
2017-07-14T05:34:19.037Z,13.7
2017-07-14T05:35:26.099Z,13.7
2017-07-14T05:36:31.715Z,13.8
2017-07-14T05:37:37.627Z,13.9
2017-07-14T05:38:42.637Z,13.9
2017-07-14T05:39:50.000Z,13.9
2017-07-14T05:40:55.548Z,13.9
2017-07-14T05:42:02.715Z,14.0
2017-07-14T05:43:11.225Z,14.1
2017-07-14T05:44:19.075Z,14.1
2017-07-14T05:45:22.320Z,14.2
2017-07-14T05:46:27.553Z,14.2
2017-07-14T05:47:34.622Z,14.3
2017-07-14T05:48:42.233Z,14.2
2017-07-14T05:49:49.788Z,14.2
2017-07-14T05:50:56.084Z,14.0
2017-07-14T05:52:02.367Z,13.9
2017-07-14T05:53:07.221Z,13.8
2017-07-14T05:54:17.089Z,13.8
2017-07-14T05:55:23.256Z,13.8
2017-07-14T05:56:30.288Z,13.8
2017-07-14T05:57:36.075Z,13.8
2017-07-14T05:58:42.345Z,13.7
2017-07-14T05:59:48.731Z,13.7
2017-07-14T06:00:55.618Z,13.7
2017-07-14T06:02:02.211Z,13.6
2017-07-14T06:03:11.601Z,13.6
2017-07-14T06:04:19.089Z,13.7
2017-07-14T06:05:25.086Z,13.7
2017-07-14T06:06:32.592Z,13.6
2017-07-14T06:07:39.134Z,13.5
2017-07-14T06:08:45.666Z,13.5
2017-07-14T06:09:52.053Z,13.5
2017-07-14T06:10:58.848Z,13.5
2017-07-14T06:12:04.112Z,13.5
2017-07-14T06:13:09.639Z,13.5
2017-07-14T06:14:16.384Z,13.6
2017-07-14T06:15:23.454Z,13.6
2017-07-14T06:16:29.821Z,13.7
2017-07-14T06:17:37.110Z,13.8
2017-07-14T06:18:44.116Z,13.8
2017-07-14T06:19:54.612Z,13.8
2017-07-14T06:20:59.781Z,13.8
2017-07-14T06:22:05.756Z,13.8
2017-07-14T06:23:14.634Z,13.6
2017-07-14T06:24:22.627Z,13.5
2017-07-14T06:25:31.639Z,13.5
2017-07-14T06:26:40.056Z,13.4
2017-07-14T06:27:47.997Z,13.4
2017-07-14T06:28:55.227Z,13.4
2017-07-14T06:30:06.382Z,13.3
2017-07-14T06:31:11.754Z,13.3
2017-07-14T06:32:20.436Z,13.3
2017-07-14T06:33:27.605Z,13.3
2017-07-14T06:34:34.331Z,13.4
2017-07-14T06:35:43.141Z,13.4
2017-07-14T06:36:47.637Z,13.5
2017-07-14T06:37:52.744Z,13.5
2017-07-14T06:38:59.969Z,13.6
2017-07-14T06:40:07.243Z,13.6
2017-07-14T06:41:13.368Z,13.7
2017-07-14T06:42:20.354Z,13.7
2017-07-14T06:43:25.185Z,13.8
2017-07-14T06:44:27.500Z,13.8
2017-07-14T06:45:32.788Z,13.9
2017-07-14T06:46:35.039Z,13.9
2017-07-14T06:47:37.324Z,13.9
2017-07-14T06:48:40.973Z,13.9
2017-07-14T06:49:43.528Z,13.9
2017-07-14T06:50:45.642Z,14.0
2017-07-14T06:51:47.815Z,13.9
2017-07-14T06:52:49.988Z,13.9
2017-07-14T06:53:52.158Z,13.9
2017-07-14T06:54:54.339Z,13.9
2017-07-14T06:55:56.526Z,13.8
2017-07-14T06:56:58.687Z,13.9
2017-07-14T06:58:00.851Z,13.9
2017-07-14T06:59:03.005Z,14.0
2017-07-14T07:00:05.190Z,14.0
2017-07-14T07:01:07.363Z,14.0
2017-07-14T07:02:09.525Z,14.0
2017-07-14T07:03:11.697Z,14.2
2017-07-14T07:04:13.861Z,14.2
2017-07-14T07:05:16.050Z,14.3
2017-07-14T07:06:18.186Z,14.3
2017-07-14T07:07:20.342Z,14.4
2017-07-14T07:08:22.495Z,14.5
2017-07-14T07:09:24.640Z,14.6
2017-07-14T07:10:26.811Z,14.7
2017-07-14T07:11:28.956Z,14.7
2017-07-14T07:12:31.097Z,14.7
2017-07-14T07:13:33.320Z,14.8
2017-07-14T07:14:35.473Z,15.0
2017-07-14T07:15:37.655Z,15.1
2017-07-14T07:16:39.793Z,15.2
2017-07-14T07:17:41.943Z,15.4
2017-07-14T07:18:44.083Z,15.7
2017-07-14T07:19:46.229Z,16.0
2017-07-14T07:20:48.390Z,16.4
2017-07-14T07:21:50.546Z,16.8
2017-07-14T07:22:52.703Z,17.1
2017-07-14T07:23:54.851Z,17.3
2017-07-14T07:24:57.009Z,17.3
2017-07-14T07:25:59.367Z,17.3
2017-07-14T07:27:01.822Z,17.2
2017-07-14T07:28:03.966Z,17.3
2017-07-14T07:29:06.115Z,17.3
2017-07-14T07:30:08.255Z,17.2
2017-07-14T07:31:10.421Z,17.0
2017-07-14T07:32:12.581Z,16.8
2017-07-14T07:33:14.728Z,16.7
2017-07-14T07:34:16.881Z,16.7
2017-07-14T07:35:19.043Z,16.7
2017-07-14T07:36:21.213Z,16.8
2017-07-14T07:37:23.376Z,16.9
2017-07-14T07:38:25.525Z,16.9
2017-07-14T07:39:27.678Z,17.1
2017-07-14T07:40:29.825Z,17.4
2017-07-14T07:41:32.015Z,17.6
2017-07-14T07:42:34.176Z,17.9
2017-07-14T07:43:36.355Z,17.9
2017-07-14T07:44:38.510Z,18.0
2017-07-14T07:45:40.661Z,18.1
2017-07-14T07:46:42.866Z,18.0
2017-07-14T07:47:45.053Z,17.9
2017-07-14T07:48:47.239Z,17.8
2017-07-14T07:49:49.425Z,17.7
2017-07-14T07:50:51.599Z,17.6
2017-07-14T07:51:53.791Z,17.5
2017-07-14T07:52:55.998Z,17.3
2017-07-14T07:53:58.196Z,17.2
2017-07-14T07:55:00.353Z,17.0
2017-07-14T07:56:02.504Z,16.9
2017-07-14T07:57:04.744Z,16.4
2017-07-14T07:58:06.871Z,16.4
2017-07-14T07:59:10.761Z,16.3
2017-07-14T08:00:13.758Z,16.5
2017-07-14T08:01:16.494Z,16.7
2017-07-14T08:02:19.775Z,16.9
2017-07-14T08:03:22.771Z,17.4
2017-07-14T08:04:24.906Z,18.2
2017-07-14T08:05:27.051Z,18.9
2017-07-14T08:06:29.192Z,19.5
2017-07-14T08:07:31.371Z,19.7
2017-07-14T08:08:33.518Z,19.7
2017-07-14T08:09:35.661Z,19.7
2017-07-14T08:10:37.810Z,19.7
2017-07-14T08:11:39.943Z,20.0
2017-07-14T08:12:42.138Z,20.4
2017-07-14T08:13:44.291Z,20.6
2017-07-14T08:14:46.436Z,20.9
2017-07-14T08:15:48.579Z,21.1
2017-07-14T08:16:50.724Z,21.1
2017-07-14T08:17:52.894Z,21.0
2017-07-14T08:18:55.046Z,20.8
2017-07-14T08:19:57.201Z,20.6
2017-07-14T08:20:59.344Z,20.6
2017-07-14T08:22:01.485Z,20.6
2017-07-14T08:23:03.643Z,20.6
2017-07-14T08:24:05.791Z,20.5
2017-07-14T08:25:07.933Z,20.3
2017-07-14T08:26:10.075Z,20.2
2017-07-14T08:27:12.223Z,20.0
2017-07-14T08:28:14.393Z,19.9
2017-07-14T08:29:16.526Z,19.8
2017-07-14T08:30:18.669Z,19.8
2017-07-14T08:31:20.818Z,19.7
2017-07-14T08:32:22.969Z,19.5
2017-07-14T08:33:25.151Z,19.4
2017-07-14T08:34:27.288Z,19.3
2017-07-14T08:35:29.439Z,19.3
2017-07-14T08:36:31.588Z,19.3
2017-07-14T08:37:33.774Z,19.4
2017-07-14T08:38:35.914Z,19.5
2017-07-14T08:39:38.064Z,19.6
2017-07-14T08:40:40.227Z,19.8
2017-07-14T08:41:42.369Z,19.8
2017-07-14T08:42:44.557Z,20.0
2017-07-14T08:43:46.713Z,20.1
2017-07-14T08:44:48.857Z,20.2
2017-07-14T08:45:51.000Z,20.4
2017-07-14T08:46:53.149Z,20.5
2017-07-14T08:47:55.328Z,20.5
2017-07-14T08:48:57.485Z,20.8
2017-07-14T08:49:59.638Z,21.0
2017-07-14T08:51:01.796Z,21.4
2017-07-14T08:52:03.942Z,21.6
2017-07-14T08:53:06.102Z,21.8
2017-07-14T08:54:08.252Z,21.9
2017-07-14T08:55:10.412Z,22.1
2017-07-14T08:56:12.586Z,22.1
2017-07-14T08:57:14.706Z,22.1
2017-07-14T08:58:16.878Z,22.1
2017-07-14T08:59:19.029Z,22.2
2017-07-14T09:00:21.171Z,22.3
2017-07-14T09:01:23.313Z,22.4
2017-07-14T09:02:25.466Z,22.6
2017-07-14T09:03:27.640Z,22.6
2017-07-14T09:04:29.782Z,22.9
2017-07-14T09:05:31.942Z,22.9
2017-07-14T09:06:34.092Z,23.1
2017-07-14T09:07:36.246Z,23.1
2017-07-14T09:08:38.415Z,22.6
2017-07-14T09:09:40.552Z,22.8
2017-07-14T09:10:42.699Z,23.0
2017-07-14T09:11:44.842Z,23.0
2017-07-14T09:12:46.982Z,23.2
2017-07-14T09:13:49.152Z,23.3
2017-07-14T09:14:51.300Z,23.5
2017-07-14T09:15:53.441Z,23.7
2017-07-14T09:16:55.610Z,24.0
2017-07-14T09:17:57.753Z,24.1
2017-07-14T09:18:59.921Z,23.8
2017-07-14T09:20:02.066Z,23.7
2017-07-14T09:21:04.212Z,23.7
2017-07-14T09:22:06.353Z,23.0
2017-07-14T09:23:08.498Z,23.3
2017-07-14T09:24:10.669Z,23.5
2017-07-14T09:25:12.823Z,23.6
2017-07-14T09:26:14.975Z,23.4
2017-07-14T09:27:17.128Z,23.4
2017-07-14T09:28:19.284Z,23.6
2017-07-14T09:29:21.455Z,23.9
2017-07-14T09:30:23.612Z,24.2
2017-07-14T09:31:25.776Z,24.2
2017-07-14T09:32:27.933Z,24.2
2017-07-14T09:33:30.081Z,24.4
2017-07-14T09:34:32.266Z,24.7
2017-07-14T09:35:34.408Z,24.7
2017-07-14T09:36:36.566Z,24.9
2017-07-14T09:37:38.732Z,24.9
2017-07-14T09:38:40.875Z,24.6
2017-07-14T09:39:43.037Z,24.6
2017-07-14T09:40:45.185Z,24.5
2017-07-14T09:41:47.350Z,24.2
2017-07-14T09:42:49.505Z,24.4
2017-07-14T09:43:51.650Z,24.3
2017-07-14T09:44:53.812Z,24.3
2017-07-14T09:45:55.966Z,24.3
2017-07-14T09:46:58.128Z,24.2
2017-07-14T09:48:00.298Z,24.0
2017-07-14T09:49:02.456Z,24.0
2017-07-14T09:50:04.682Z,24.1
2017-07-14T09:51:06.831Z,23.8
2017-07-14T09:52:09.458Z,23.5
2017-07-14T09:53:11.625Z,23.8
2017-07-14T09:54:13.771Z,24.1
2017-07-14T09:55:15.948Z,24.2
2017-07-14T09:56:18.118Z,24.2
2017-07-14T09:57:20.267Z,24.3
2017-07-14T09:58:22.439Z,24.5
2017-07-14T09:59:24.586Z,24.7
2017-07-14T10:00:26.766Z,24.8
2017-07-14T10:01:28.909Z,24.9
2017-07-14T10:02:31.052Z,24.9
2017-07-14T10:03:33.233Z,25.1
2017-07-14T10:04:35.419Z,25.3
2017-07-14T10:05:37.610Z,25.4
2017-07-14T10:06:39.755Z,25.3
2017-07-14T10:07:41.913Z,25.2
2017-07-14T10:08:44.063Z,25.2
2017-07-14T10:09:46.261Z,25.1
2017-07-14T10:10:48.409Z,25.0
2017-07-14T10:11:50.555Z,24.8
2017-07-14T10:12:52.704Z,24.6
2017-07-14T10:13:54.864Z,24.5
2017-07-14T10:14:57.041Z,24.7
2017-07-14T10:15:59.193Z,24.7
2017-07-14T10:17:01.353Z,24.8
2017-07-14T10:18:03.507Z,24.8
2017-07-14T10:19:05.665Z,24.9
2017-07-14T10:20:07.883Z,24.8
2017-07-14T10:21:10.042Z,24.9
2017-07-14T10:22:12.193Z,24.9
2017-07-14T10:23:14.336Z,24.9
2017-07-14T10:24:16.498Z,25.0
2017-07-14T10:25:18.711Z,25.1
2017-07-14T10:26:20.870Z,25.4
2017-07-14T10:27:23.040Z,25.4
2017-07-14T10:28:25.205Z,25.5
2017-07-14T10:29:27.360Z,25.7
2017-07-14T10:30:29.546Z,25.7
2017-07-14T10:31:31.720Z,25.6
2017-07-14T10:32:34.247Z,25.4
2017-07-14T10:33:37.419Z,25.7
2017-07-14T10:34:39.558Z,26.0
2017-07-14T10:35:41.716Z,26.1
2017-07-14T10:36:43.865Z,26.2
2017-07-14T10:37:46.005Z,26.2
2017-07-14T10:38:48.157Z,26.1
2017-07-14T10:39:50.299Z,26.1
2017-07-14T10:40:52.477Z,26.1
2017-07-14T10:41:54.627Z,26.0
2017-07-14T10:42:56.769Z,26.0
2017-07-14T10:44:01.640Z,26.2
2017-07-14T10:45:03.566Z,26.4
2017-07-14T10:46:05.744Z,26.5
2017-07-14T10:47:07.931Z,26.5
2017-07-14T10:48:10.083Z,26.6
2017-07-14T10:49:12.246Z,27.0
2017-07-14T10:50:14.392Z,27.1
2017-07-14T10:51:16.587Z,27.0
2017-07-14T10:52:18.728Z,26.9
2017-07-14T10:53:20.863Z,26.9
2017-07-14T10:54:23.024Z,26.4
2017-07-14T10:55:25.635Z,26.1
2017-07-14T10:56:27.971Z,26.2
2017-07-14T10:57:30.102Z,26.4
2017-07-14T10:58:32.248Z,26.7
2017-07-14T10:59:34.411Z,27.0
2017-07-14T11:00:36.543Z,27.5
2017-07-14T11:01:38.706Z,27.6
2017-07-14T11:02:40.852Z,27.7
2017-07-14T11:03:43.010Z,27.8
2017-07-14T11:04:45.165Z,28.2
2017-07-14T11:05:47.315Z,28.5
2017-07-14T11:06:49.503Z,29.0
2017-07-14T11:07:51.674Z,29.3
2017-07-14T11:08:53.831Z,29.2
2017-07-14T11:09:55.981Z,29.3
2017-07-14T11:10:58.140Z,29.3
2017-07-14T11:12:00.315Z,29.0
2017-07-14T11:13:02.465Z,28.3
2017-07-14T11:14:04.622Z,27.8
2017-07-14T11:15:06.773Z,27.0
2017-07-14T11:16:08.920Z,26.1
2017-07-14T11:17:11.097Z,26.0
2017-07-14T11:18:13.253Z,26.0
2017-07-14T11:19:15.407Z,26.4
2017-07-14T11:20:17.568Z,26.2
2017-07-14T11:21:19.717Z,26.3
2017-07-14T11:22:21.883Z,26.5
2017-07-14T11:23:24.049Z,26.7
2017-07-14T11:24:26.202Z,26.8
2017-07-14T11:25:28.352Z,26.7
2017-07-14T11:26:30.512Z,27.1
2017-07-14T11:27:32.693Z,26.7
2017-07-14T11:28:34.844Z,26.3
2017-07-14T11:29:36.987Z,25.9
2017-07-14T11:30:39.147Z,26.3
2017-07-14T11:31:41.303Z,25.8
2017-07-14T11:32:43.517Z,26.4
2017-07-14T11:33:45.663Z,27.3
2017-07-14T11:34:47.810Z,27.4
2017-07-14T11:35:49.975Z,28.1
2017-07-14T11:36:52.088Z,28.7
2017-07-14T11:37:54.267Z,29.3
2017-07-14T11:38:56.404Z,30.3
2017-07-14T11:39:58.560Z,31.0
2017-07-14T11:41:00.701Z,31.3
2017-07-14T11:42:02.842Z,30.2
2017-07-14T11:43:05.017Z,29.7
2017-07-14T11:44:07.175Z,28.8
2017-07-14T11:45:09.310Z,28.2
2017-07-14T11:46:11.448Z,27.6
2017-07-14T11:47:13.591Z,27.3
2017-07-14T11:48:15.776Z,28.1
2017-07-14T11:49:17.919Z,29.5
2017-07-14T11:50:20.074Z,30.4
2017-07-14T11:51:22.226Z,31.0
2017-07-14T11:52:24.375Z,31.6
2017-07-14T11:53:26.570Z,33.4
2017-07-14T11:54:28.735Z,34.8
2017-07-14T11:55:30.930Z,36.3
2017-07-14T11:56:33.097Z,37.1
2017-07-14T11:57:35.316Z,37.9
2017-07-14T11:58:37.496Z,38.4
2017-07-14T11:59:39.713Z,38.8
2017-07-14T12:00:41.883Z,38.2
2017-07-14T12:01:44.042Z,38.9
2017-07-14T12:02:46.255Z,38.0
2017-07-14T12:03:48.422Z,38.0
2017-07-14T12:04:50.591Z,38.5
2017-07-14T12:05:52.777Z,38.7
2017-07-14T12:06:54.935Z,35.6
2017-07-14T12:07:57.121Z,34.5
2017-07-14T12:08:59.280Z,34.5
2017-07-14T12:10:01.462Z,33.3
2017-07-14T12:11:03.612Z,32.7
2017-07-14T12:12:05.753Z,31.5
2017-07-14T12:13:07.927Z,32.8
2017-07-14T12:14:10.109Z,34.0
2017-07-14T12:15:12.488Z,33.0
2017-07-14T12:16:14.694Z,32.3
2017-07-14T12:17:16.845Z,31.2
2017-07-14T12:18:19.136Z,30.7
2017-07-14T12:19:21.307Z,30.0
2017-07-14T12:20:23.461Z,31.5
2017-07-14T12:21:25.625Z,34.1
2017-07-14T12:22:27.795Z,35.7
2017-07-14T12:23:29.991Z,35.8
2017-07-14T12:24:32.152Z,37.6
2017-07-14T12:25:34.322Z,38.5
2017-07-14T12:26:36.500Z,39.3
2017-07-14T12:27:38.652Z,38.6
2017-07-14T12:28:40.852Z,40.1
2017-07-14T12:29:43.007Z,40.8
2017-07-14T12:30:45.165Z,41.8
2017-07-14T12:31:47.325Z,42.7
2017-07-14T12:32:49.492Z,44.5
2017-07-14T12:33:51.683Z,44.8
2017-07-14T12:34:53.851Z,44.1
2017-07-14T12:35:56.036Z,42.4
2017-07-14T12:36:58.184Z,35.5
2017-07-14T12:38:00.344Z,33.6
2017-07-14T12:39:02.533Z,33.6
2017-07-14T12:40:04.690Z,35.5
2017-07-14T12:41:06.862Z,37.3
2017-07-14T12:42:09.108Z,39.1
2017-07-14T12:43:11.261Z,40.5
2017-07-14T12:44:13.479Z,42.8
2017-07-14T12:45:15.639Z,44.2
2017-07-14T12:46:17.806Z,44.5
2017-07-14T12:47:19.991Z,45.1
2017-07-14T12:48:22.152Z,45.2
2017-07-14T12:49:24.336Z,45.3
2017-07-14T12:50:26.500Z,46.5
2017-07-14T12:51:28.680Z,46.9
2017-07-14T12:52:30.852Z,46.2
2017-07-14T12:53:33.011Z,43.6
2017-07-14T12:54:35.222Z,42.8
2017-07-14T12:55:37.419Z,40.7
2017-07-14T12:56:39.593Z,37.3
2017-07-14T12:57:41.772Z,34.6
2017-07-14T12:58:43.965Z,34.3
2017-07-14T12:59:46.149Z,35.2
2017-07-14T13:00:48.340Z,34.9
2017-07-14T13:01:50.492Z,31.9
2017-07-14T13:02:52.650Z,31.3
2017-07-14T13:03:54.810Z,28.4
2017-07-14T13:04:56.995Z,28.6
2017-07-14T13:05:59.136Z,31.7
2017-07-14T13:07:01.294Z,35.5
2017-07-14T13:08:03.447Z,37.6
2017-07-14T13:09:05.608Z,35.2
2017-07-14T13:10:07.808Z,33.7
2017-07-14T13:11:09.955Z,32.7
2017-07-14T13:12:12.106Z,32.7
2017-07-14T13:13:14.269Z,35.0
2017-07-14T13:14:16.433Z,35.9
2017-07-14T13:15:18.620Z,36.9
2017-07-14T13:16:20.781Z,38.2
2017-07-14T13:17:22.950Z,37.3
2017-07-14T13:18:25.133Z,36.3
2017-07-14T13:19:27.316Z,35.9
2017-07-14T13:20:29.504Z,38.5
2017-07-14T13:21:31.669Z,38.6
2017-07-14T13:22:33.838Z,37.8
2017-07-14T13:23:36.011Z,37.6
2017-07-14T13:24:38.184Z,38.2
2017-07-14T13:25:40.358Z,37.0
2017-07-14T13:26:42.523Z,39.9
2017-07-14T13:27:44.686Z,41.5
2017-07-14T13:28:46.853Z,38.8
2017-07-14T13:29:49.029Z,35.8
2017-07-14T13:30:51.243Z,35.5
2017-07-14T13:31:53.404Z,37.4
2017-07-14T13:32:55.569Z,38.2
2017-07-14T13:33:57.737Z,39.8
2017-07-14T13:34:59.944Z,39.7
2017-07-14T13:36:02.123Z,41.5
2017-07-14T13:37:04.278Z,43.0
2017-07-14T13:38:06.445Z,42.6
2017-07-14T13:39:08.666Z,41.2
2017-07-14T13:40:10.851Z,40.6
2017-07-14T13:41:13.022Z,41.4
2017-07-14T13:42:15.169Z,38.3
2017-07-14T13:43:17.331Z,38.2
2017-07-14T13:44:19.499Z,38.9
2017-07-14T13:45:21.698Z,38.8
2017-07-14T13:46:23.861Z,38.0
2017-07-14T13:47:26.038Z,39.8
2017-07-14T13:48:28.197Z,38.8
2017-07-14T13:49:30.360Z,38.3
2017-07-14T13:50:32.545Z,37.2
2017-07-14T13:51:34.720Z,37.7
2017-07-14T13:52:36.889Z,37.6
2017-07-14T13:53:39.072Z,38.9
2017-07-14T13:54:41.239Z,39.5
2017-07-14T13:55:43.423Z,36.9
2017-07-14T13:56:45.583Z,38.5
2017-07-14T13:57:47.753Z,40.2
2017-07-14T13:58:49.942Z,39.4
2017-07-14T13:59:52.098Z,40.1
2017-07-14T14:00:54.327Z,42.0
2017-07-14T14:01:56.504Z,42.3
2017-07-14T14:02:58.685Z,40.7
2017-07-14T14:04:00.850Z,39.1
2017-07-14T14:05:03.001Z,39.3
2017-07-14T14:06:05.202Z,41.2
2017-07-14T14:07:07.384Z,42.2
2017-07-14T14:08:09.544Z,43.7
2017-07-14T14:09:11.722Z,43.7
2017-07-14T14:10:13.910Z,43.3
2017-07-14T14:11:16.092Z,41.2
2017-07-14T14:12:18.254Z,40.3
2017-07-14T14:13:20.430Z,41.4
2017-07-14T14:14:22.781Z,43.4
2017-07-14T14:15:24.944Z,44.1
2017-07-14T14:16:27.135Z,41.9
2017-07-14T14:17:29.317Z,41.8
2017-07-14T14:18:31.485Z,42.7
2017-07-14T14:19:33.658Z,43.4
2017-07-14T14:20:35.811Z,40.9
2017-07-14T14:21:38.004Z,39.7